createdAt,value
2023-01-15T00:00:00.011Z,67.50
2023-01-15T00:02:45.992Z,69.10
2023-01-15T00:05:32.040Z,69.10
2023-01-15T00:08:18.066Z,68.40
2023-01-15T00:11:04.480Z,68.70
2023-01-15T00:13:50.871Z,68.50
2023-01-15T00:16:36.908Z,68.00
2023-01-15T00:19:22.936Z,68.70
2023-01-15T00:22:08.894Z,68.10
2023-01-15T00:25:13.604Z,68.20
2023-01-15T00:28:01.613Z,68.10
2023-01-15T00:30:47.776Z,69.00
2023-01-15T00:33:33.795Z,67.50
2023-01-15T00:36:19.823Z,68.10
2023-01-15T00:39:05.519Z,68.10
2023-01-15T00:41:51.677Z,68.60
2023-01-15T00:44:37.583Z,69.90
2023-01-15T00:47:25.637Z,69.80
2023-01-15T00:50:12.708Z,70.10
2023-01-15T00:52:58.473Z,69.80
2023-01-15T00:55:44.484Z,72.60
2023-01-15T00:58:30.510Z,72.40
2023-01-15T01:01:16.798Z,72.60
2023-01-15T01:04:03.367Z,73.10
2023-01-15T01:06:49.391Z,73.40
2023-01-15T01:09:35.495Z,72.50
2023-01-15T01:12:21.724Z,72.80
2023-01-15T01:15:09.824Z,73.50
2023-01-15T01:17:56.010Z,74.40
2023-01-15T01:20:42.725Z,72.80
2023-01-15T01:23:29.648Z,72.30
2023-01-15T01:26:16.588Z,73.80
2023-01-15T01:29:03.203Z,73.80
2023-01-15T01:31:51.098Z,73.70
2023-01-15T01:34:37.639Z,73.40
2023-01-15T01:37:23.585Z,73.80
2023-01-15T01:40:09.888Z,75.80
2023-01-15T01:42:56.872Z,78.20
2023-01-15T01:45:42.936Z,79.80
2023-01-15T01:48:31.055Z,78.10
2023-01-15T01:51:18.691Z,80.70
2023-01-15T01:54:04.870Z,82.60
2023-01-15T01:56:51.152Z,83.40
2023-01-15T01:59:37.739Z,83.50
2023-01-15T02:02:24.203Z,85.80
2023-01-15T02:05:11.543Z,84.50
2023-01-15T02:07:57.373Z,85.30
2023-01-15T02:10:43.561Z,83.90
2023-01-15T02:13:29.813Z,85.60
2023-01-15T02:16:22.098Z,84.60
2023-01-15T02:19:26.853Z,83.70
2023-01-15T02:22:12.979Z,83.90
2023-01-15T02:25:12.680Z,83.20
2023-01-15T02:28:04.219Z,82.20
2023-01-15T02:30:53.571Z,82.30
2023-01-15T02:33:43.477Z,80.60
2023-01-15T02:36:31.509Z,80.30
2023-01-15T02:39:20.389Z,80.70
2023-01-15T02:42:08.896Z,80.90
2023-01-15T02:45:02.671Z,79.60
2023-01-15T02:47:49.819Z,80.20
2023-01-15T02:50:37.251Z,79.40
2023-01-15T02:53:26.837Z,80.00
2023-01-15T02:56:16.758Z,79.50
2023-01-15T02:59:19.233Z,80.10
2023-01-15T03:02:09.206Z,80.60
2023-01-15T03:04:58.645Z,80.60
2023-01-15T03:08:05.942Z,81.30
2023-01-15T03:11:23.680Z,81.40
2023-01-15T03:14:22.037Z,81.10
2023-01-15T03:17:31.041Z,81.80
2023-01-15T03:20:20.141Z,82.10
2023-01-15T03:23:11.653Z,81.80
2023-01-15T03:25:58.035Z,81.60
2023-01-15T03:28:44.904Z,83.60
2023-01-15T03:31:31.151Z,82.90
2023-01-15T03:34:18.198Z,82.50
2023-01-15T03:37:05.976Z,81.90
2023-01-15T03:39:52.614Z,82.60
2023-01-15T03:42:42.841Z,83.00
2023-01-15T03:45:33.945Z,84.00
2023-01-15T03:48:34.423Z,84.00
2023-01-15T03:51:25.821Z,84.80
2023-01-15T03:54:21.829Z,83.60
2023-01-15T03:57:23.248Z,83.80
2023-01-15T04:00:15.327Z,83.50
2023-01-15T04:03:11.428Z,82.90
2023-01-15T04:05:58.205Z,82.30
2023-01-15T04:08:45.745Z,82.50
2023-01-15T04:11:32.680Z,83.00
2023-01-15T04:14:24.739Z,82.30
2023-01-15T04:17:13.487Z,82.00
2023-01-15T04:19:59.478Z,82.60
2023-01-15T04:22:45.447Z,82.90
2023-01-15T04:25:31.314Z,83.70
2023-01-15T04:28:17.389Z,82.60
2023-01-15T04:31:03.568Z,84.20
2023-01-15T04:33:49.651Z,83.10
2023-01-15T04:36:38.218Z,82.90
2023-01-15T04:39:24.470Z,82.30
2023-01-15T04:42:41.679Z,82.40
2023-01-15T04:45:28.600Z,82.50
2023-01-15T04:48:14.441Z,82.50
2023-01-15T04:51:04.450Z,83.60
2023-01-15T04:53:50.314Z,81.50
2023-01-15T04:56:40.905Z,81.40
2023-01-15T04:59:27.300Z,81.30
2023-01-15T05:02:15.142Z,82.20
2023-01-15T05:05:01.666Z,81.90
2023-01-15T05:07:47.938Z,83.20
2023-01-15T05:10:33.889Z,84.40
2023-01-15T05:13:19.708Z,85.40
2023-01-15T05:16:16.217Z,84.40
2023-01-15T05:19:03.232Z,86.10
2023-01-15T05:21:49.131Z,83.30
2023-01-15T05:24:35.071Z,84.20
2023-01-15T05:27:20.944Z,84.50
2023-01-15T05:30:07.240Z,83.40
2023-01-15T05:32:53.245Z,83.00
2023-01-15T05:35:39.298Z,83.30
2023-01-15T05:38:25.285Z,81.60
2023-01-15T05:41:31.053Z,82.10
2023-01-15T05:44:18.904Z,81.90
2023-01-15T05:47:07.578Z,82.40
2023-01-15T05:49:53.280Z,81.20
2023-01-15T05:52:39.347Z,81.90
2023-01-15T05:55:25.544Z,82.60
2023-01-15T05:58:11.517Z,82.50
2023-01-15T06:00:57.787Z,84.10
2023-01-15T06:03:43.694Z,84.40
2023-01-15T06:06:29.964Z,85.00
2023-01-15T06:09:16.177Z,84.90
2023-01-15T06:12:02.011Z,85.10
2023-01-15T06:14:48.199Z,84.80
2023-01-15T06:17:34.415Z,84.70
2023-01-15T06:20:20.480Z,84.40
2023-01-15T06:23:06.733Z,84.60
2023-01-15T06:25:52.497Z,85.00
2023-01-15T06:28:38.567Z,85.10
2023-01-15T06:31:26.852Z,85.30
2023-01-15T06:34:13.169Z,85.10
2023-01-15T06:36:59.162Z,85.00
2023-01-15T06:39:45.310Z,85.00
2023-01-15T06:42:50.015Z,84.60
2023-01-15T06:45:58.573Z,84.60
2023-01-15T06:48:44.481Z,84.20
2023-01-15T06:51:31.344Z,84.50
2023-01-15T06:54:17.717Z,84.40
2023-01-15T06:57:03.600Z,84.70
2023-01-15T06:59:50.055Z,84.90
2023-01-15T07:02:36.426Z,85.10
2023-01-15T07:05:22.169Z,84.90
2023-01-15T07:08:08.326Z,84.80
2023-01-15T07:10:54.372Z,84.80
2023-01-15T07:13:40.435Z,85.30
2023-01-15T07:16:29.423Z,85.10
2023-01-15T07:19:15.906Z,85.30
2023-01-15T07:22:01.883Z,85.50
2023-01-15T07:24:48.315Z,85.30
2023-01-15T07:27:34.299Z,85.70
2023-01-15T07:30:20.428Z,85.50
2023-01-15T07:33:06.664Z,86.10
2023-01-15T07:35:52.650Z,86.00
2023-01-15T07:38:38.937Z,86.20
2023-01-15T07:41:43.595Z,86.40
2023-01-15T07:44:49.106Z,86.40
2023-01-15T07:47:53.695Z,86.80
2023-01-15T07:50:40.002Z,86.20
2023-01-15T07:53:26.183Z,86.30
2023-01-15T07:56:12.181Z,85.80
2023-01-15T07:58:58.358Z,85.70
2023-01-15T08:01:44.530Z,85.50
2023-01-15T08:04:30.367Z,85.50
2023-01-15T08:07:16.383Z,85.50
2023-01-15T08:10:02.410Z,85.40
2023-01-15T08:13:10.484Z,85.30
2023-01-15T08:15:56.363Z,85.90
2023-01-15T08:18:42.064Z,85.80
2023-01-15T08:21:27.962Z,85.60
2023-01-15T08:24:14.090Z,85.20
2023-01-15T08:27:00.425Z,84.90
2023-01-15T08:29:46.350Z,85.10
2023-01-15T08:32:32.581Z,85.00
2023-01-15T08:35:18.486Z,85.20
2023-01-15T08:38:07.103Z,84.90
2023-01-15T08:40:59.750Z,85.20
2023-01-15T08:43:45.908Z,85.00
2023-01-15T08:46:31.704Z,85.00
2023-01-15T08:49:18.323Z,84.50
2023-01-15T08:52:04.456Z,84.00
2023-01-15T08:54:50.578Z,83.10
2023-01-15T08:57:36.358Z,83.60
2023-01-15T09:00:22.157Z,83.50
2023-01-15T09:03:08.094Z,83.90
2023-01-15T09:05:54.605Z,82.50
2023-01-15T09:08:40.928Z,83.10
2023-01-15T09:11:27.049Z,82.50
2023-01-15T09:14:58.403Z,82.90
2023-01-15T09:17:19.761Z,82.60
2023-01-15T09:20:05.963Z,82.60
2023-01-15T09:22:52.102Z,82.40
2023-01-15T09:25:37.990Z,81.80
2023-01-15T09:28:24.069Z,81.40
2023-01-15T09:31:09.746Z,80.90
2023-01-15T09:33:55.914Z,79.90
2023-01-15T09:36:42.062Z,80.50
2023-01-15T09:39:28.323Z,79.00
2023-01-15T09:42:30.762Z,78.30
2023-01-15T09:45:23.012Z,78.10
2023-01-15T09:48:08.866Z,78.90
2023-01-15T09:50:57.996Z,78.20
2023-01-15T09:53:46.884Z,77.40
2023-01-15T09:56:35.432Z,77.70
2023-01-15T09:59:35.285Z,77.40
2023-01-15T10:02:39.365Z,80.30
2023-01-15T10:05:30.694Z,84.10
2023-01-15T10:08:21.326Z,86.10
2023-01-15T10:11:16.139Z,86.00
2023-01-15T10:14:05.655Z,87.30
2023-01-15T10:16:51.719Z,88.40
2023-01-15T10:19:44.604Z,89.00
2023-01-15T10:22:36.823Z,89.20
2023-01-15T10:25:26.090Z,89.80
2023-01-15T10:28:38.276Z,90.30
2023-01-15T10:31:27.072Z,90.60
2023-01-15T10:34:26.147Z,90.50
2023-01-15T10:37:27.368Z,90.70
2023-01-15T10:40:31.996Z,91.00
2023-01-15T10:43:36.913Z,90.70
2023-01-15T10:46:27.262Z,90.70
2023-01-15T10:49:17.321Z,90.70
2023-01-15T10:52:06.451Z,90.70
2023-01-15T10:54:57.738Z,90.50
2023-01-15T10:57:56.473Z,90.50
2023-01-15T11:00:52.021Z,90.60
2023-01-15T11:03:40.008Z,90.60
2023-01-15T11:06:26.584Z,90.40
2023-01-15T11:09:18.973Z,90.50
2023-01-15T11:12:22.164Z,90.60
2023-01-15T11:15:41.102Z,90.70
2023-01-15T11:18:47.303Z,90.50
2023-01-15T11:21:33.255Z,90.50
2023-01-15T11:24:19.561Z,90.40
2023-01-15T11:27:06.210Z,90.60
2023-01-15T11:29:54.087Z,90.30
2023-01-15T11:32:39.955Z,90.70
2023-01-15T11:35:26.465Z,90.80
2023-01-15T11:38:15.749Z,90.60
2023-01-15T11:41:02.311Z,90.50
2023-01-15T11:44:13.360Z,91.00
2023-01-15T11:47:18.032Z,91.30
2023-01-15T11:50:35.263Z,91.70
2023-01-15T11:53:23.991Z,92.50
2023-01-15T11:56:11.695Z,92.50
2023-01-15T11:58:58.983Z,92.40
2023-01-15T12:01:59.480Z,92.60
2023-01-15T12:04:55.109Z,92.60
2023-01-15T12:07:41.210Z,93.10
2023-01-15T12:10:45.733Z,93.40
2023-01-15T12:13:39.069Z,93.60
2023-01-15T12:16:43.696Z,93.90
2023-01-15T12:19:44.924Z,93.90
2023-01-15T12:22:50.358Z,94.10
2023-01-15T12:25:39.149Z,94.60
2023-01-15T12:28:31.474Z,94.80
2023-01-15T12:31:20.156Z,95.00
2023-01-15T12:34:06.534Z,94.80
2023-01-15T12:36:56.459Z,95.00
2023-01-15T12:39:58.223Z,95.00
2023-01-15T12:43:08.892Z,95.10
2023-01-15T12:45:57.508Z,95.00
2023-01-15T12:48:51.693Z,95.30
2023-01-15T12:51:47.089Z,95.50
2023-01-15T12:54:53.437Z,95.60
2023-01-15T12:57:42.278Z,95.40
2023-01-15T13:00:34.567Z,95.30
2023-01-15T13:03:26.837Z,95.70
2023-01-15T13:06:14.322Z,95.70
2023-01-15T13:09:11.170Z,95.60
2023-01-15T13:11:57.137Z,95.40
2023-01-15T13:14:46.452Z,95.40
2023-01-15T13:17:50.785Z,95.60
2023-01-15T13:20:40.858Z,96.00
2023-01-15T13:23:26.663Z,95.60
2023-01-15T13:26:15.410Z,95.90
2023-01-15T13:29:02.301Z,95.90
2023-01-15T13:31:57.806Z,96.10
2023-01-15T13:34:47.645Z,96.30
2023-01-15T13:37:33.431Z,96.00
2023-01-15T13:40:28.944Z,96.40
2023-01-15T13:43:23.664Z,96.50
2023-01-15T13:46:13.895Z,96.00
2023-01-15T13:48:59.864Z,95.80
2023-01-15T13:51:48.093Z,95.30
2023-01-15T13:54:36.167Z,94.90
2023-01-15T13:57:31.765Z,95.30
2023-01-15T14:00:27.159Z,95.00
2023-01-15T14:03:32.570Z,94.80
2023-01-15T14:06:18.482Z,93.80
2023-01-15T14:09:05.306Z,94.20
2023-01-15T14:12:06.595Z,94.40
2023-01-15T14:15:02.822Z,93.90
2023-01-15T14:18:01.436Z,94.10
2023-01-15T14:20:52.599Z,94.20
2023-01-15T14:24:16.930Z,94.00
2023-01-15T14:27:08.808Z,93.80
2023-01-15T14:30:04.058Z,93.80
2023-01-15T14:32:55.836Z,93.70
2023-01-15T14:35:45.136Z,93.80
2023-01-15T14:38:33.249Z,93.50
2023-01-15T14:41:26.300Z,93.50
2023-01-15T14:44:12.071Z,94.00
2023-01-15T14:46:59.332Z,94.30
2023-01-15T14:49:50.038Z,94.90
2023-01-15T14:52:36.057Z,94.80
2023-01-15T14:55:22.779Z,95.20
2023-01-15T14:58:16.760Z,95.40
2023-01-15T15:01:07.679Z,95.10
2023-01-15T15:03:59.077Z,95.00
2023-01-15T15:06:47.312Z,94.80
2023-01-15T15:09:36.609Z,95.20
2023-01-15T15:12:25.652Z,94.80
2023-01-15T15:15:27.025Z,95.00
2023-01-15T15:18:13.271Z,94.90
2023-01-15T15:20:58.926Z,95.10
2023-01-15T15:24:03.817Z,95.40
2023-01-15T15:26:50.054Z,95.40
2023-01-15T15:29:36.393Z,96.20
2023-01-15T15:32:23.607Z,96.60
2023-01-15T15:35:22.482Z,96.80
2023-01-15T15:38:15.779Z,97.10
2023-01-15T15:41:05.295Z,97.20
2023-01-15T15:44:12.587Z,97.30
2023-01-15T15:47:30.979Z,97.30
2023-01-15T15:50:24.691Z,97.30
2023-01-15T15:53:16.974Z,97.10
2023-01-15T15:56:03.495Z,97.10
2023-01-15T15:58:49.751Z,97.30
2023-01-15T16:01:39.419Z,97.20
2023-01-15T16:04:27.104Z,97.10
2023-01-15T16:07:13.938Z,97.00
2023-01-15T16:10:02.470Z,97.10
2023-01-15T16:12:50.820Z,97.30
2023-01-15T16:15:39.626Z,97.20
2023-01-15T16:18:27.936Z,97.30
2023-01-15T16:21:19.550Z,97.40
2023-01-15T16:24:06.682Z,97.40
2023-01-15T16:27:05.559Z,97.40
2023-01-15T16:29:52.632Z,97.20
2023-01-15T16:32:39.406Z,96.40
2023-01-15T16:35:25.671Z,95.90
2023-01-15T16:38:18.448Z,95.70
2023-01-15T16:41:04.427Z,95.70
2023-01-15T16:44:00.817Z,95.20
2023-01-15T16:46:52.774Z,95.20
2023-01-15T16:49:38.940Z,94.80
2023-01-15T16:52:35.509Z,94.80
2023-01-15T16:55:33.654Z,94.60
2023-01-15T16:58:20.746Z,94.20
2023-01-15T17:01:26.974Z,94.40
2023-01-15T17:04:28.279Z,94.20
2023-01-15T17:07:14.256Z,94.00
2023-01-15T17:10:01.410Z,93.70
2023-01-15T17:12:47.262Z,93.60
2023-01-15T17:15:37.109Z,93.30
2023-01-15T17:18:27.147Z,93.20
2023-01-15T17:21:21.555Z,93.20
2023-01-15T17:24:08.576Z,93.30
2023-01-15T17:26:54.533Z,93.20
2023-01-15T17:29:40.617Z,93.30
2023-01-15T17:32:30.467Z,93.50
2023-01-15T17:35:19.533Z,93.30
2023-01-15T17:38:06.753Z,93.30
2023-01-15T17:40:55.647Z,92.90
2023-01-15T17:43:41.431Z,92.90
2023-01-15T17:46:27.404Z,92.80
2023-01-15T17:49:13.723Z,92.80
2023-01-15T17:52:00.418Z,92.90
2023-01-15T17:55:05.013Z,92.60
2023-01-15T17:58:09.586Z,92.50
2023-01-15T18:01:14.251Z,92.50
2023-01-15T18:04:18.519Z,92.50
2023-01-15T18:07:04.281Z,92.80
2023-01-15T18:09:52.942Z,92.20
2023-01-15T18:12:39.310Z,92.30
2023-01-15T18:15:25.271Z,92.60
2023-01-15T18:18:11.660Z,92.30
2023-01-15T18:20:59.205Z,92.30
2023-01-15T18:23:45.184Z,92.30
2023-01-15T18:26:31.229Z,92.30
2023-01-15T18:29:17.309Z,92.30
2023-01-15T18:32:03.269Z,92.30
2023-01-15T18:34:49.361Z,92.40
2023-01-15T18:37:35.894Z,92.10
2023-01-15T18:40:27.037Z,92.10
2023-01-15T18:43:31.647Z,91.90
2023-01-15T18:46:36.331Z,91.90
2023-01-15T18:49:22.255Z,91.80
2023-01-15T18:52:27.200Z,91.90
2023-01-15T18:55:13.011Z,91.70
2023-01-15T18:57:59.936Z,91.80
2023-01-15T19:00:45.860Z,91.80
2023-01-15T19:03:31.957Z,91.50
2023-01-15T19:06:17.960Z,91.70
2023-01-15T19:09:04.122Z,91.60
2023-01-15T19:11:51.309Z,91.90
2023-01-15T19:14:55.949Z,91.70
2023-01-15T19:18:00.426Z,91.70
2023-01-15T19:20:46.115Z,91.40
2023-01-15T19:23:31.847Z,91.50
2023-01-15T19:26:18.124Z,91.60
2023-01-15T19:29:04.590Z,91.70
2023-01-15T19:31:50.698Z,91.50
2023-01-15T19:34:36.433Z,91.50
2023-01-15T19:37:22.497Z,91.50
2023-01-15T19:40:29.225Z,91.40
2023-01-15T19:43:33.937Z,91.30
2023-01-15T19:46:38.243Z,91.30
2023-01-15T19:49:42.719Z,91.20
2023-01-15T19:52:34.678Z,91.10
2023-01-15T19:55:21.517Z,91.10
2023-01-15T19:58:09.238Z,91.10
2023-01-15T20:00:55.043Z,91.10
2023-01-15T20:03:40.890Z,91.10
2023-01-15T20:06:26.948Z,91.00
2023-01-15T20:09:13.049Z,90.70
2023-01-15T20:12:17.878Z,90.80
2023-01-15T20:15:03.937Z,91.00
2023-01-15T20:17:49.655Z,90.90
2023-01-15T20:20:35.544Z,90.80
2023-01-15T20:23:21.716Z,90.90
2023-01-15T20:26:12.348Z,90.90
2023-01-15T20:28:58.262Z,91.10
2023-01-15T20:31:44.279Z,91.00
2023-01-15T20:34:31.466Z,91.00
2023-01-15T20:37:17.280Z,90.90
2023-01-15T20:40:03.458Z,90.70
2023-01-15T20:43:07.776Z,90.90
2023-01-15T20:45:53.466Z,90.90
2023-01-15T20:48:58.010Z,90.70
2023-01-15T20:51:45.248Z,90.80
2023-01-15T20:54:31.082Z,90.50
2023-01-15T20:57:17.226Z,90.70
2023-01-15T21:00:04.855Z,90.50
2023-01-15T21:02:51.100Z,90.60
2023-01-15T21:05:37.909Z,90.60
2023-01-15T21:08:23.869Z,90.50
2023-01-15T21:11:09.918Z,90.60
2023-01-15T21:13:55.959Z,90.60
2023-01-15T21:16:42.208Z,90.80
2023-01-15T21:19:28.129Z,90.60
2023-01-15T21:22:14.418Z,90.50
2023-01-15T21:25:00.209Z,90.30
2023-01-15T21:27:46.277Z,90.30
2023-01-15T21:30:32.213Z,90.30
2023-01-15T21:33:18.097Z,90.30
2023-01-15T21:36:08.442Z,90.30
2023-01-15T21:38:54.883Z,90.20
2023-01-15T21:41:59.540Z,90.20
2023-01-15T21:44:45.983Z,90.40
2023-01-15T21:47:32.117Z,90.10
2023-01-15T21:50:18.277Z,90.10
2023-01-15T21:53:04.390Z,90.20
2023-01-15T21:55:50.902Z,90.30
2023-01-15T21:58:37.146Z,90.10
2023-01-15T22:01:23.202Z,90.10
2023-01-15T22:04:09.186Z,90.10
2023-01-15T22:06:55.529Z,90.00
2023-01-15T22:09:41.276Z,89.90
2023-01-15T22:12:27.048Z,90.00
2023-01-15T22:15:12.930Z,90.10
2023-01-15T22:17:59.406Z,90.00
2023-01-15T22:20:46.688Z,90.20
2023-01-15T22:23:33.853Z,90.10
2023-01-15T22:26:21.156Z,89.90
2023-01-15T22:29:07.202Z,89.90
2023-01-15T22:31:53.330Z,89.80
2023-01-15T22:34:39.798Z,89.30
2023-01-15T22:37:25.849Z,89.40
2023-01-15T22:40:12.094Z,89.40
2023-01-15T22:42:57.965Z,89.20
2023-01-15T22:45:43.929Z,89.00
2023-01-15T22:48:29.827Z,89.10
2023-01-15T22:51:15.910Z,89.20
2023-01-15T22:54:02.016Z,89.30
2023-01-15T22:56:48.118Z,89.00
2023-01-15T22:59:34.051Z,89.00
2023-01-15T23:02:40.081Z,89.00
2023-01-15T23:05:25.813Z,89.20
2023-01-15T23:08:11.881Z,89.00
2023-01-15T23:10:57.993Z,89.30
2023-01-15T23:13:43.775Z,89.20
2023-01-15T23:16:29.827Z,89.20
2023-01-15T23:19:16.297Z,89.30
2023-01-15T23:22:02.423Z,89.50
2023-01-15T23:24:48.277Z,89.60
2023-01-15T23:27:34.714Z,90.00
2023-01-15T23:30:20.517Z,89.70
2023-01-15T23:33:06.471Z,89.20
2023-01-15T23:35:53.092Z,89.70
2023-01-15T23:38:39.715Z,89.90
2023-01-15T23:41:44.346Z,89.60
2023-01-15T23:44:48.913Z,89.70
2023-01-15T23:47:35.336Z,89.90
2023-01-15T23:50:21.396Z,89.90
2023-01-15T23:53:07.173Z,89.50
2023-01-15T23:55:53.177Z,89.60
2023-01-15T23:58:39.093Z,89.60
